sensor_id;sensor_type;location;lat;lon;timestamp;pressure;altitude;pressure_sealevel;temperature;humidity
3780;BME280;1905;52.482;9.802;2022-10-03T00:01:12;101688.53;;;11.21;83.42
3780;BME280;1905;52.482;9.802;2022-10-03T00:03:49;101693.00;;;11.19;84.17
3780;BME280;1905;52.482;9.802;2022-10-03T00:06:28;101697.41;;;11.19;84.63
3780;BME280;1905;52.482;9.802;2022-10-03T00:09:11;101695.63;;;11.19;83.85
3780;BME280;1905;52.482;9.802;2022-10-03T00:11:57;101693.84;;;11.20;84.40
3780;BME280;1905;52.482;9.802;2022-10-03T00:14:34;101706.94;;;11.24;83.99
3780;BME280;1905;52.482;9.802;2022-10-03T00:17:11;101713.19;;;11.22;84.70
3780;BME280;1905;52.482;9.802;2022-10-03T00:19:47;101718.66;;;11.16;84.55
3780;BME280;1905;52.482;9.802;2022-10-03T00:22:27;101717.59;;;11.21;86.15
3780;BME280;1905;52.482;9.802;2022-10-03T00:25:05;101722.03;;;11.21;84.17
3780;BME280;1905;52.482;9.802;2022-10-03T00:27:45;101723.78;;;11.20;84.49
3780;BME280;1905;52.482;9.802;2022-10-03T00:30:17;101715.84;;;11.20;83.67
3780;BME280;1905;52.482;9.802;2022-10-03T00:32:55;101720.00;;;11.29;83.89
3780;BME280;1905;52.482;9.802;2022-10-03T00:35:43;101722.81;;;11.24;84.02
3780;BME280;1905;52.482;9.802;2022-10-03T00:38:40;101727.13;;;11.27;83.74
3780;BME280;1905;52.482;9.802;2022-10-03T00:41:38;101722.63;;;11.30;83.00
3780;BME280;1905;52.482;9.802;2022-10-03T00:44:36;101725.38;;;11.27;82.97
3780;BME280;1905;52.482;9.802;2022-10-03T00:47:31;101726.25;;;11.26;83.69
3780;BME280;1905;52.482;9.802;2022-10-03T00:50:30;101733.38;;;11.24;85.22
3780;BME280;1905;52.482;9.802;2022-10-03T00:53:19;101735.88;;;11.29;83.50
3780;BME280;1905;52.482;9.802;2022-10-03T00:56:15;101736.84;;;11.26;83.36
3780;BME280;1905;52.482;9.802;2022-10-03T00:58:58;101740.28;;;11.28;83.60
3780;BME280;1905;52.482;9.802;2022-10-03T01:01:36;101741.97;;;11.31;83.73
3780;BME280;1905;52.482;9.802;2022-10-03T01:04:17;101748.38;;;11.24;83.26
3780;BME280;1905;52.482;9.802;2022-10-03T01:06:54;101744.78;;;11.26;83.63
3780;BME280;1905;52.482;9.802;2022-10-03T01:09:36;101747.50;;;11.23;83.18
3780;BME280;1905;52.482;9.802;2022-10-03T01:12:31;101746.50;;;11.27;83.14
3780;BME280;1905;52.482;9.802;2022-10-03T01:15:10;101746.53;;;11.26;83.20
3780;BME280;1905;52.482;9.802;2022-10-03T01:17:51;101745.66;;;11.25;83.58
3780;BME280;1905;52.482;9.802;2022-10-03T01:20:27;101743.00;;;11.27;83.13
3780;BME280;1905;52.482;9.802;2022-10-03T01:26:06;101761.75;;;11.19;83.76
3780;BME280;1905;52.482;9.802;2022-10-03T01:28:46;101753.56;;;11.27;83.63
3780;BME280;1905;52.482;9.802;2022-10-03T01:31:40;101757.19;;;11.24;83.51
3780;BME280;1905;52.482;9.802;2022-10-03T01:34:15;101764.19;;;11.25;82.92
3780;BME280;1905;52.482;9.802;2022-10-03T01:36:53;101766.75;;;11.28;83.49
3780;BME280;1905;52.482;9.802;2022-10-03T01:39:30;101765.06;;;11.26;83.22
3780;BME280;1905;52.482;9.802;2022-10-03T01:42:07;101759.75;;;11.27;83.35
3780;BME280;1905;52.482;9.802;2022-10-03T01:44:51;101769.44;;;11.27;82.61
3780;BME280;1905;52.482;9.802;2022-10-03T01:47:25;101772.03;;;11.28;83.77
3780;BME280;1905;52.482;9.802;2022-10-03T01:50:00;101777.31;;;11.28;83.20
3780;BME280;1905;52.482;9.802;2022-10-03T01:52:47;101783.44;;;11.30;82.92
3780;BME280;1905;52.482;9.802;2022-10-03T01:55:22;101785.22;;;11.30;83.82
3780;BME280;1905;52.482;9.802;2022-10-03T01:57:56;101794.19;;;11.24;83.51
3780;BME280;1905;52.482;9.802;2022-10-03T02:00:33;101798.38;;;11.31;82.88
3780;BME280;1905;52.482;9.802;2022-10-03T02:03:09;101791.38;;;11.30;83.23
3780;BME280;1905;52.482;9.802;2022-10-03T02:05:40;101795.72;;;11.33;83.23
3780;BME280;1905;52.482;9.802;2022-10-03T02:08:24;101795.81;;;11.30;83.05
3780;BME280;1905;52.482;9.802;2022-10-03T02:11:00;101797.50;;;11.31;83.21
3780;BME280;1905;52.482;9.802;2022-10-03T02:13:39;101798.47;;;11.28;83.16
3780;BME280;1905;52.482;9.802;2022-10-03T02:16:17;101798.38;;;11.31;83.38
3780;BME280;1905;52.482;9.802;2022-10-03T02:18:54;101800.06;;;11.35;83.11
3780;BME280;1905;52.482;9.802;2022-10-03T02:21:28;101805.44;;;11.32;83.03
3780;BME280;1905;52.482;9.802;2022-10-03T02:24:13;101807.13;;;11.33;83.49
3780;BME280;1905;52.482;9.802;2022-10-03T02:27:07;101815.91;;;11.35;83.70
3780;BME280;1905;52.482;9.802;2022-10-03T02:29:55;101801.91;;;11.32;82.92
3780;BME280;1905;52.482;9.802;2022-10-03T02:32:50;101809.69;;;11.36;83.98
3780;BME280;1905;52.482;9.802;2022-10-03T02:35:38;101808.94;;;11.33;83.17
3780;BME280;1905;52.482;9.802;2022-10-03T02:38:25;101810.66;;;11.34;82.98
3780;BME280;1905;52.482;9.802;2022-10-03T02:41:12;101818.50;;;11.37;83.17
3780;BME280;1905;52.482;9.802;2022-10-03T02:44:35;101829.97;;;11.36;83.54
3780;BME280;1905;52.482;9.802;2022-10-03T02:47:40;101826.59;;;11.32;83.18
3780;BME280;1905;52.482;9.802;2022-10-03T02:56:55;101833.69;;;11.30;83.60
3780;BME280;1905;52.482;9.802;2022-10-03T03:03:05;101831.13;;;11.27;82.95
3780;BME280;1905;52.482;9.802;2022-10-03T03:06:06;101833.06;;;11.21;83.15
3780;BME280;1905;52.482;9.802;2022-10-03T03:09:01;101836.59;;;11.21;83.48
3780;BME280;1905;52.482;9.802;2022-10-03T03:11:46;101838.28;;;11.24;83.37
3780;BME280;1905;52.482;9.802;2022-10-03T03:17:31;101853.34;;;11.20;83.42
3780;BME280;1905;52.482;9.802;2022-10-03T03:20:20;101858.56;;;11.23;82.91
3780;BME280;1905;52.482;9.802;2022-10-03T03:23:11;101856.94;;;11.19;82.76
3780;BME280;1905;52.482;9.802;2022-10-03T03:25:58;101852.59;;;11.17;82.84
3780;BME280;1905;52.482;9.802;2022-10-03T03:28:41;101846.44;;;11.16;83.13
3780;BME280;1905;52.482;9.802;2022-10-03T03:31:13;101857.00;;;11.16;83.41
3780;BME280;1905;52.482;9.802;2022-10-03T03:33:53;101850.69;;;11.22;83.35
3780;BME280;1905;52.482;9.802;2022-10-03T03:36:31;101855.19;;;11.18;82.93
3780;BME280;1905;52.482;9.802;2022-10-03T03:39:14;101852.53;;;11.18;82.95
3780;BME280;1905;52.482;9.802;2022-10-03T03:42:01;101853.50;;;11.16;83.05
3780;BME280;1905;52.482;9.802;2022-10-03T03:47:54;101851.72;;;11.16;83.42
3780;BME280;1905;52.482;9.802;2022-10-03T03:50:38;101851.63;;;11.19;84.34
3780;BME280;1905;52.482;9.802;2022-10-03T03:53:37;101855.34;;;11.12;84.24
3780;BME280;1905;52.482;9.802;2022-10-03T03:56:18;101856.13;;;11.16;84.48
3780;BME280;1905;52.482;9.802;2022-10-03T03:58:58;101857.91;;;11.15;83.55
3780;BME280;1905;52.482;9.802;2022-10-03T04:01:48;101868.56;;;11.12;83.78
3780;BME280;1905;52.482;9.802;2022-10-03T04:04:37;101860.53;;;11.15;83.48
3780;BME280;1905;52.482;9.802;2022-10-03T04:07:13;101860.47;;;11.18;83.60
3780;BME280;1905;52.482;9.802;2022-10-03T04:10:00;101854.38;;;11.16;84.77
3780;BME280;1905;52.482;9.802;2022-10-03T04:13:00;101860.47;;;11.18;83.83
3780;BME280;1905;52.482;9.802;2022-10-03T04:15:38;101856.81;;;11.22;83.27
3780;BME280;1905;52.482;9.802;2022-10-03T04:18:21;101849.00;;;11.19;83.76
3780;BME280;1905;52.482;9.802;2022-10-03T04:21:34;101842.78;;;11.20;83.65
3780;BME280;1905;52.482;9.802;2022-10-03T04:24:19;101844.81;;;11.11;83.41
3780;BME280;1905;52.482;9.802;2022-10-03T04:27:06;101853.50;;;11.16;83.86
3780;BME280;1905;52.482;9.802;2022-10-03T04:29:45;101856.22;;;11.13;83.53
3780;BME280;1905;52.482;9.802;2022-10-03T04:32:26;101851.81;;;11.13;84.36
3780;BME280;1905;52.482;9.802;2022-10-03T04:35:19;101855.34;;;11.12;83.90
3780;BME280;1905;52.482;9.802;2022-10-03T04:37:56;101865.19;;;11.07;83.44
3780;BME280;1905;52.482;9.802;2022-10-03T04:40:38;101871.25;;;11.11;83.66
3780;BME280;1905;52.482;9.802;2022-10-03T04:43:14;101877.50;;;11.08;82.71
3780;BME280;1905;52.482;9.802;2022-10-03T04:46:03;101872.13;;;11.11;83.31
3780;BME280;1905;52.482;9.802;2022-10-03T04:48:39;101875.81;;;11.04;83.00
3780;BME280;1905;52.482;9.802;2022-10-03T04:51:15;101873.03;;;11.10;83.17
3780;BME280;1905;52.482;9.802;2022-10-03T04:53:51;101873.03;;;11.10;82.71
3780;BME280;1905;52.482;9.802;2022-10-03T04:56:33;101880.09;;;11.10;82.57
3780;BME280;1905;52.482;9.802;2022-10-03T04:59:20;101881.94;;;11.06;82.78
3780;BME280;1905;52.482;9.802;2022-10-03T05:01:54;101884.72;;;11.02;83.00
3780;BME280;1905;52.482;9.802;2022-10-03T05:04:32;101883.84;;;11.01;83.04
3780;BME280;1905;52.482;9.802;2022-10-03T05:07:10;101884.78;;;10.99;83.52
3780;BME280;1905;52.482;9.802;2022-10-03T05:09:44;101882.13;;;11.00;83.75
3780;BME280;1905;52.482;9.802;2022-10-03T05:12:18;101884.00;;;10.95;83.52
3780;BME280;1905;52.482;9.802;2022-10-03T05:15:03;101889.38;;;10.92;83.13
3780;BME280;1905;52.482;9.802;2022-10-03T05:17:43;101884.25;;;10.86;83.65
3780;BME280;1905;52.482;9.802;2022-10-03T05:20:23;101896.53;;;10.87;82.98
3780;BME280;1905;52.482;9.802;2022-10-03T05:22:57;101890.63;;;10.77;83.56
3780;BME280;1905;52.482;9.802;2022-10-03T05:25:37;101900.22;;;10.82;83.27
3780;BME280;1905;52.482;9.802;2022-10-03T05:28:16;101901.13;;;10.81;83.63
3780;BME280;1905;52.482;9.802;2022-10-03T05:30:52;101904.59;;;10.83;84.83
3780;BME280;1905;52.482;9.802;2022-10-03T05:33:31;101908.97;;;10.84;83.58
3780;BME280;1905;52.482;9.802;2022-10-03T05:36:10;101914.34;;;10.81;83.59
3780;BME280;1905;52.482;9.802;2022-10-03T05:42:10;101921.25;;;10.86;83.45
3780;BME280;1905;52.482;9.802;2022-10-03T05:44:56;101918.78;;;10.79;83.44
3780;BME280;1905;52.482;9.802;2022-10-03T05:47:30;101919.75;;;10.76;84.14
3780;BME280;1905;52.482;9.802;2022-10-03T05:50:30;101927.56;;;10.79;83.41
3780;BME280;1905;52.482;9.802;2022-10-03T05:53:14;101931.13;;;10.78;83.69
3780;BME280;1905;52.482;9.802;2022-10-03T05:55:55;101931.88;;;10.83;83.68
3780;BME280;1905;52.482;9.802;2022-10-03T05:58:50;101934.47;;;10.85;83.23
3780;BME280;1905;52.482;9.802;2022-10-03T06:01:41;101951.06;;;10.91;83.56
3780;BME280;1905;52.482;9.802;2022-10-03T06:04:50;101937.78;;;10.94;83.09
3780;BME280;1905;52.482;9.802;2022-10-03T06:07:25;101946.66;;;10.92;83.63
3780;BME280;1905;52.482;9.802;2022-10-03T06:10:17;101947.53;;;10.92;83.45
3780;BME280;1905;52.482;9.802;2022-10-03T06:12:54;101949.25;;;10.93;83.51
3780;BME280;1905;52.482;9.802;2022-10-03T06:15:38;101955.34;;;10.95;83.83
3780;BME280;1905;52.482;9.802;2022-10-03T06:18:49;101951.78;;;10.98;83.50
3780;BME280;1905;52.482;9.802;2022-10-03T06:21:42;101961.41;;;11.00;83.47
3780;BME280;1905;52.482;9.802;2022-10-03T06:24:39;101958.78;;;11.00;84.21
3780;BME280;1905;52.482;9.802;2022-10-03T06:30:20;101959.41;;;11.10;84.05
3780;BME280;1905;52.482;9.802;2022-10-03T06:33:26;101960.16;;;11.15;84.69
3780;BME280;1905;52.482;9.802;2022-10-03T06:36:20;101970.78;;;11.12;83.28
3780;BME280;1905;52.482;9.802;2022-10-03T06:39:13;101971.53;;;11.18;85.01
3780;BME280;1905;52.482;9.802;2022-10-03T06:48:33;101977.56;;;11.23;84.93
3780;BME280;1905;52.482;9.802;2022-10-03T06:51:19;101979.31;;;11.23;84.89
3780;BME280;1905;52.482;9.802;2022-10-03T06:54:06;101976.50;;;11.30;86.45
3780;BME280;1905;52.482;9.802;2022-10-03T06:57:12;101974.53;;;11.39;85.82
3780;BME280;1905;52.482;9.802;2022-10-03T06:59:58;101971.78;;;11.42;85.39
3780;BME280;1905;52.482;9.802;2022-10-03T07:02:49;101976.09;;;11.46;84.98
3780;BME280;1905;52.482;9.802;2022-10-03T07:05:46;101972.41;;;11.51;84.41
3780;BME280;1905;52.482;9.802;2022-10-03T07:08:42;101977.66;;;11.53;84.63
3780;BME280;1905;52.482;9.802;2022-10-03T07:11:40;101975.09;;;11.50;85.67
3780;BME280;1905;52.482;9.802;2022-10-03T07:14:48;101984.69;;;11.54;85.10
3780;BME280;1905;52.482;9.802;2022-10-03T07:17:40;101985.50;;;11.57;86.49
3780;BME280;1905;52.482;9.802;2022-10-03T07:26:50;101985.19;;;11.69;86.62
3780;BME280;1905;52.482;9.802;2022-10-03T07:29:28;101984.31;;;11.69;85.48
3780;BME280;1905;52.482;9.802;2022-10-03T07:32:15;101985.06;;;11.74;85.61
3780;BME280;1905;52.482;9.802;2022-10-03T07:35:07;101980.59;;;11.76;85.07
3780;BME280;1905;52.482;9.802;2022-10-03T07:37:59;101989.34;;;11.78;84.71
3780;BME280;1905;52.482;9.802;2022-10-03T07:44:06;102001.72;;;11.77;86.54
3780;BME280;1905;52.482;9.802;2022-10-03T07:49:58;102002.59;;;11.78;86.18
3780;BME280;1905;52.482;9.802;2022-10-03T07:52:51;101993.75;;;11.79;85.90
3780;BME280;1905;52.482;9.802;2022-10-03T07:55:41;102004.34;;;11.79;86.45
3780;BME280;1905;52.482;9.802;2022-10-03T07:58:25;102000.84;;;11.77;87.31
3780;BME280;1905;52.482;9.802;2022-10-03T08:01:06;102005.16;;;11.81;86.92
3780;BME280;1905;52.482;9.802;2022-10-03T08:03:57;102009.50;;;11.83;86.88
3780;BME280;1905;52.482;9.802;2022-10-03T08:06:37;102010.44;;;11.81;86.41
3780;BME280;1905;52.482;9.802;2022-10-03T08:09:26;102007.56;;;11.90;87.22
3780;BME280;1905;52.482;9.802;2022-10-03T08:12:20;102004.72;;;11.96;88.06
3780;BME280;1905;52.482;9.802;2022-10-03T08:14:56;102013.44;;;12.01;87.93
3780;BME280;1905;52.482;9.802;2022-10-03T08:18:03;102017.66;;;12.07;86.54
3780;BME280;1905;52.482;9.802;2022-10-03T08:20:41;102020.28;;;12.08;86.66
3780;BME280;1905;52.482;9.802;2022-10-03T08:26:45;102016.53;;;12.15;88.39
3780;BME280;1905;52.482;9.802;2022-10-03T08:29:30;102023.50;;;12.18;87.81
3780;BME280;1905;52.482;9.802;2022-10-03T08:32:27;102026.94;;;12.21;87.01
3780;BME280;1905;52.482;9.802;2022-10-03T08:38:22;102017.94;;;12.28;88.33
3780;BME280;1905;52.482;9.802;2022-10-03T08:41:29;102011.69;;;12.29;88.29
3780;BME280;1905;52.482;9.802;2022-10-03T08:47:23;102020.94;;;12.45;88.93
3780;BME280;1905;52.482;9.802;2022-10-03T08:50:18;102018.00;;;12.54;88.63
3780;BME280;1905;52.482;9.802;2022-10-03T08:53:04;102022.38;;;12.55;88.61
3780;BME280;1905;52.482;9.802;2022-10-03T08:55:44;102022.28;;;12.59;87.64
3780;BME280;1905;52.482;9.802;2022-10-03T08:58:41;102021.22;;;12.64;88.86
3780;BME280;1905;52.482;9.802;2022-10-03T09:01:29;102029.91;;;12.69;87.65
3780;BME280;1905;52.482;9.802;2022-10-03T09:04:36;102027.78;;;12.80;87.48
3780;BME280;1905;52.482;9.802;2022-10-03T09:07:19;102031.03;;;12.90;87.52
3780;BME280;1905;52.482;9.802;2022-10-03T09:13:19;102029.47;;;13.12;87.29
3780;BME280;1905;52.482;9.802;2022-10-03T09:16:09;102035.41;;;13.20;86.80
3780;BME280;1905;52.482;9.802;2022-10-03T09:18:56;102035.91;;;13.31;86.12
3780;BME280;1905;52.482;9.802;2022-10-03T09:24:56;102036.97;;;13.52;85.99
3780;BME280;1905;52.482;9.802;2022-10-03T09:27:42;102036.69;;;13.59;84.99
3780;BME280;1905;52.482;9.802;2022-10-03T09:30:31;102044.34;;;13.68;85.01
3780;BME280;1905;52.482;9.802;2022-10-03T09:33:35;102043.22;;;13.76;84.75
3780;BME280;1905;52.482;9.802;2022-10-03T09:36:28;102037.69;;;13.82;85.24
3780;BME280;1905;52.482;9.802;2022-10-03T09:42:58;102025.66;;;13.96;85.20
3780;BME280;1905;52.482;9.802;2022-10-03T09:45:55;102029.91;;;14.02;84.24
3780;BME280;1905;52.482;9.802;2022-10-03T09:48:48;102038.34;;;14.13;82.98
3780;BME280;1905;52.482;9.802;2022-10-03T09:51:33;102036.19;;;14.22;84.16
3780;BME280;1905;52.482;9.802;2022-10-03T09:54:30;102044.94;;;14.26;83.91
3780;BME280;1905;52.482;9.802;2022-10-03T09:57:36;102034.19;;;14.29;84.51
3780;BME280;1905;52.482;9.802;2022-10-03T10:00:24;102045.59;;;14.32;84.67
3780;BME280;1905;52.482;9.802;2022-10-03T10:03:37;102036.53;;;14.38;84.72
3780;BME280;1905;52.482;9.802;2022-10-03T10:06:37;102042.41;;;14.46;85.51
3780;BME280;1905;52.482;9.802;2022-10-03T10:09:36;102043.06;;;14.53;84.26
3780;BME280;1905;52.482;9.802;2022-10-03T10:21:35;102030.22;;;14.64;83.23
3780;BME280;1905;52.482;9.802;2022-10-03T10:24:26;102030.78;;;14.72;82.96
3780;BME280;1905;52.482;9.802;2022-10-03T10:27:18;102034.22;;;14.75;83.01
3780;BME280;1905;52.482;9.802;2022-10-03T10:30:21;102033.94;;;14.81;83.68
3780;BME280;1905;52.482;9.802;2022-10-03T10:39:51;102024.69;;;14.92;82.21
3780;BME280;1905;52.482;9.802;2022-10-03T10:42:52;102012.19;;;14.94;82.58
3780;BME280;1905;52.482;9.802;2022-10-03T10:45:43;102018.97;;;15.01;82.27
3780;BME280;1905;52.482;9.802;2022-10-03T10:52:28;102026.16;;;15.20;80.52
3780;BME280;1905;52.482;9.802;2022-10-03T10:55:33;102029.56;;;15.24;80.75
3780;BME280;1905;52.482;9.802;2022-10-03T10:58:55;102021.47;;;15.27;80.75
3780;BME280;1905;52.482;9.802;2022-10-03T11:02:07;102024.84;;;15.30;80.66
3780;BME280;1905;52.482;9.802;2022-10-03T11:08:48;102019.06;;;15.41;80.45
3780;BME280;1905;52.482;9.802;2022-10-03T11:12:06;102015.34;;;15.45;80.36
3780;BME280;1905;52.482;9.802;2022-10-03T11:15:29;102006.34;;;15.49;80.33
3780;BME280;1905;52.482;9.802;2022-10-03T11:24:51;102008.13;;;15.69;78.75
3780;BME280;1905;52.482;9.802;2022-10-03T11:30:51;102001.53;;;15.77;78.34
3780;BME280;1905;52.482;9.802;2022-10-03T11:40:07;102008.19;;;15.87;79.36
3780;BME280;1905;52.482;9.802;2022-10-03T11:42:51;102018.72;;;15.90;78.65
3780;BME280;1905;52.482;9.802;2022-10-03T11:45:26;102015.00;;;15.94;78.76
3780;BME280;1905;52.482;9.802;2022-10-03T11:48:15;102017.53;;;15.97;77.15
3780;BME280;1905;52.482;9.802;2022-10-03T11:50:49;102012.97;;;15.99;77.40
3780;BME280;1905;52.482;9.802;2022-10-03T11:53:42;102016.38;;;16.03;76.76
3780;BME280;1905;52.482;9.802;2022-10-03T11:56:33;102009.09;;;16.06;77.35
3780;BME280;1905;52.482;9.802;2022-10-03T11:59:38;102009.91;;;16.08;77.56
3780;BME280;1905;52.482;9.802;2022-10-03T12:02:15;102006.16;;;16.13;78.08
3780;BME280;1905;52.482;9.802;2022-10-03T12:04:55;102012.28;;;16.15;77.76
3780;BME280;1905;52.482;9.802;2022-10-03T12:07:39;102015.75;;;16.17;77.65
3780;BME280;1905;52.482;9.802;2022-10-03T12:10:35;102007.75;;;16.17;78.42
3780;BME280;1905;52.482;9.802;2022-10-03T12:13:10;102012.00;;;16.21;78.32
3780;BME280;1905;52.482;9.802;2022-10-03T12:15:42;102010.06;;;16.24;76.98
3780;BME280;1905;52.482;9.802;2022-10-03T12:18:15;102004.47;;;16.30;76.79
3780;BME280;1905;52.482;9.802;2022-10-03T12:21:04;101997.03;;;16.37;76.70
3780;BME280;1905;52.482;9.802;2022-10-03T12:23:55;101996.88;;;16.40;76.63
3780;BME280;1905;52.482;9.802;2022-10-03T12:26:36;101998.78;;;16.38;77.41
3780;BME280;1905;52.482;9.802;2022-10-03T12:29:10;101987.81;;;16.44;76.88
3780;BME280;1905;52.482;9.802;2022-10-03T12:31:41;101998.34;;;16.47;77.27
3780;BME280;1905;52.482;9.802;2022-10-03T12:34:29;101993.03;;;16.47;76.25
3780;BME280;1905;52.482;9.802;2022-10-03T12:37:13;101986.59;;;16.51;76.87
3780;BME280;1905;52.482;9.802;2022-10-03T12:39:57;101988.03;;;16.58;75.85
3780;BME280;1905;52.482;9.802;2022-10-03T12:42:33;101991.59;;;16.58;76.58
3780;BME280;1905;52.482;9.802;2022-10-03T12:45:13;101995.75;;;16.64;75.92
3780;BME280;1905;52.482;9.802;2022-10-03T12:47:59;101999.22;;;16.66;76.78
3780;BME280;1905;52.482;9.802;2022-10-03T12:50:38;101994.59;;;16.70;76.23
3780;BME280;1905;52.482;9.802;2022-10-03T12:53:24;101990.94;;;16.72;75.84
3780;BME280;1905;52.482;9.802;2022-10-03T12:56:01;101988.25;;;16.72;75.66
3780;BME280;1905;52.482;9.802;2022-10-03T12:58:38;101994.38;;;16.74;76.30
3780;BME280;1905;52.482;9.802;2022-10-03T13:01:18;101988.84;;;16.79;76.53
3780;BME280;1905;52.482;9.802;2022-10-03T13:03:51;101989.84;;;16.76;75.34
3780;BME280;1905;52.482;9.802;2022-10-03T13:09:46;101987.97;;;16.78;76.19
3780;BME280;1905;52.482;9.802;2022-10-03T13:12:30;101985.94;;;16.83;76.83
3780;BME280;1905;52.482;9.802;2022-10-03T13:18:18;101995.59;;;16.86;75.75
3780;BME280;1905;52.482;9.802;2022-10-03T13:20:55;101982.34;;;16.84;75.73
3780;BME280;1905;52.482;9.802;2022-10-03T13:23:31;101988.69;;;16.82;75.03
3780;BME280;1905;52.482;9.802;2022-10-03T13:26:11;101989.38;;;16.85;75.67
3780;BME280;1905;52.482;9.802;2022-10-03T13:29:07;101981.47;;;16.84;76.76
3780;BME280;1905;52.482;9.802;2022-10-03T13:32:03;101980.59;;;16.83;75.84
3780;BME280;1905;52.482;9.802;2022-10-03T13:34:45;101973.31;;;16.87;75.29
3780;BME280;1905;52.482;9.802;2022-10-03T13:37:19;101975.84;;;16.90;74.14
3780;BME280;1905;52.482;9.802;2022-10-03T13:39:53;101973.81;;;16.95;76.10
3780;BME280;1905;52.482;9.802;2022-10-03T13:42:46;101972.16;;;16.92;76.47
3780;BME280;1905;52.482;9.802;2022-10-03T13:45:28;101982.19;;;16.87;75.89
3780;BME280;1905;52.482;9.802;2022-10-03T13:48:01;101972.94;;;16.94;75.50
3780;BME280;1905;52.482;9.802;2022-10-03T13:50:37;101979.88;;;16.98;75.81
3780;BME280;1905;52.482;9.802;2022-10-03T13:53:13;101973.72;;;16.96;76.53
3780;BME280;1905;52.482;9.802;2022-10-03T13:55:46;101971.03;;;16.96;75.78
3780;BME280;1905;52.482;9.802;2022-10-03T13:58:33;101963.38;;;16.90;76.08
3780;BME280;1905;52.482;9.802;2022-10-03T14:01:14;101973.22;;;16.88;76.33
3780;BME280;1905;52.482;9.802;2022-10-03T14:03:59;101965.84;;;16.93;75.98
3780;BME280;1905;52.482;9.802;2022-10-03T14:06:35;101966.03;;;16.90;76.05
3780;BME280;1905;52.482;9.802;2022-10-03T14:09:37;101966.03;;;16.90;75.94
3780;BME280;1905;52.482;9.802;2022-10-03T14:12:15;101965.84;;;16.93;75.64
3780;BME280;1905;52.482;9.802;2022-10-03T14:15:22;101964.00;;;16.95;76.63
3780;BME280;1905;52.482;9.802;2022-10-03T14:18:02;101963.03;;;16.96;76.50
3780;BME280;1905;52.482;9.802;2022-10-03T14:20:38;101952.34;;;16.96;76.66
3780;BME280;1905;52.482;9.802;2022-10-03T14:23:28;101952.16;;;17.01;76.50
3780;BME280;1905;52.482;9.802;2022-10-03T14:26:05;101961.97;;;17.00;76.06
3780;BME280;1905;52.482;9.802;2022-10-03T14:28:39;101957.63;;;16.98;76.13
3780;BME280;1905;52.482;9.802;2022-10-03T14:31:18;101952.06;;;17.02;75.98
3780;BME280;1905;52.482;9.802;2022-10-03T14:33:55;101956.63;;;17.00;76.20
3780;BME280;1905;52.482;9.802;2022-10-03T14:36:35;101951.13;;;17.03;75.60
3780;BME280;1905;52.482;9.802;2022-10-03T14:39:24;101952.53;;;17.10;76.81
3780;BME280;1905;52.482;9.802;2022-10-03T14:42:24;101952.69;;;17.07;76.15
3780;BME280;1905;52.482;9.802;2022-10-03T14:44:55;101961.47;;;17.09;75.60
3780;BME280;1905;52.482;9.802;2022-10-03T14:47:32;101961.28;;;17.14;76.66
3780;BME280;1905;52.482;9.802;2022-10-03T14:50:00;101954.03;;;17.16;75.63
3780;BME280;1905;52.482;9.802;2022-10-03T14:52:32;101953.97;;;17.17;75.37
3780;BME280;1905;52.482;9.802;2022-10-03T14:55:07;101950.50;;;17.15;76.33
3780;BME280;1905;52.482;9.802;2022-10-03T14:57:44;101955.84;;;17.15;75.35
3780;BME280;1905;52.482;9.802;2022-10-03T15:00:36;101956.66;;;17.17;75.42
3780;BME280;1905;52.482;9.802;2022-10-03T15:03:23;101946.97;;;17.15;75.60
3780;BME280;1905;52.482;9.802;2022-10-03T15:05:58;101948.84;;;17.13;75.92
3780;BME280;1905;52.482;9.802;2022-10-03T15:08:30;101947.06;;;17.13;75.31
3780;BME280;1905;52.482;9.802;2022-10-03T15:11:01;101950.66;;;17.12;75.15
3780;BME280;1905;52.482;9.802;2022-10-03T15:13:33;101948.22;;;17.08;76.24
3780;BME280;1905;52.482;9.802;2022-10-03T15:16:03;101946.19;;;17.13;76.06
3780;BME280;1905;52.482;9.802;2022-10-03T15:18:32;101956.00;;;17.12;75.25
3780;BME280;1905;52.482;9.802;2022-10-03T15:21:01;101952.53;;;17.10;75.87
3780;BME280;1905;52.482;9.802;2022-10-03T15:23:31;101952.69;;;17.07;75.68
3780;BME280;1905;52.482;9.802;2022-10-03T15:26:01;101950.13;;;17.06;76.33
3780;BME280;1905;52.482;9.802;2022-10-03T15:28:37;101947.50;;;17.04;76.81
3780;BME280;1905;52.482;9.802;2022-10-03T15:31:08;101946.09;;;16.97;77.10
3780;BME280;1905;52.482;9.802;2022-10-03T15:33:41;101944.19;;;16.99;75.72
3780;BME280;1905;52.482;9.802;2022-10-03T15:36:11;101948.91;;;16.94;76.10
3780;BME280;1905;52.482;9.802;2022-10-03T15:38:43;101949.06;;;16.91;76.97
3780;BME280;1905;52.482;9.802;2022-10-03T15:41:15;101943.81;;;16.90;76.86
3780;BME280;1905;52.482;9.802;2022-10-03T15:43:45;101942.06;;;16.89;76.37
3780;BME280;1905;52.482;9.802;2022-10-03T15:46:27;101939.50;;;16.87;76.64
3780;BME280;1905;52.482;9.802;2022-10-03T15:48:58;101934.31;;;16.84;76.71
3780;BME280;1905;52.482;9.802;2022-10-03T15:51:28;101932.56;;;16.83;77.12
3780;BME280;1905;52.482;9.802;2022-10-03T15:53:58;101931.78;;;16.81;76.93
3780;BME280;1905;52.482;9.802;2022-10-03T15:56:31;101933.59;;;16.81;76.80
3780;BME280;1905;52.482;9.802;2022-10-03T15:59:04;101929.25;;;16.78;76.84
3780;BME280;1905;52.482;9.802;2022-10-03T16:01:36;101923.22;;;16.75;76.64
3780;BME280;1905;52.482;9.802;2022-10-03T16:04:13;101932.09;;;16.75;77.10
3780;BME280;1905;52.482;9.802;2022-10-03T16:06:47;101920.63;;;16.73;77.12
3780;BME280;1905;52.482;9.802;2022-10-03T16:09:22;101923.44;;;16.70;77.03
3780;BME280;1905;52.482;9.802;2022-10-03T16:11:59;101913.78;;;16.67;76.97
3780;BME280;1905;52.482;9.802;2022-10-03T16:14:38;101911.19;;;16.66;76.96
3780;BME280;1905;52.482;9.802;2022-10-03T16:17:14;101917.69;;;16.60;77.51
3780;BME280;1905;52.482;9.802;2022-10-03T16:19:50;101914.19;;;16.60;77.65
3780;BME280;1905;52.482;9.802;2022-10-03T16:22:23;101915.19;;;16.57;77.28
3780;BME280;1905;52.482;9.802;2022-10-03T16:25:03;101918.78;;;16.56;77.23
3780;BME280;1905;52.482;9.802;2022-10-03T16:27:35;101924.31;;;16.52;77.28
3780;BME280;1905;52.482;9.802;2022-10-03T16:30:19;101919.91;;;16.51;77.59
3780;BME280;1905;52.482;9.802;2022-10-03T16:32:52;101920.34;;;16.42;77.97